createdAt,value
2023-01-28T00:00:13.731Z,100258.83
2023-01-28T00:03:22.628Z,100260.93
2023-01-28T00:06:31.622Z,100255.51
2023-01-28T00:09:39.299Z,100256.80
2023-01-28T00:13:07.021Z,100255.46
2023-01-28T00:15:36.204Z,100258.67
2023-01-28T00:18:44.151Z,100262.48
2023-01-28T00:21:52.859Z,100261.77
2023-01-28T00:25:02.551Z,100270.77
2023-01-28T00:28:30.210Z,100273.85
2023-01-28T00:31:19.041Z,100272.93
2023-01-28T00:34:46.755Z,100273.52
2023-01-28T00:37:36.431Z,100276.03
2023-01-28T00:41:04.162Z,100272.05
2023-01-28T00:44:13.893Z,100276.95
2023-01-28T00:47:23.563Z,100276.96
2023-01-28T00:49:54.576Z,100278.60
2023-01-28T00:53:22.191Z,100278.52
2023-01-28T00:56:50.195Z,100279.42
2023-01-28T00:59:58.213Z,100283.59
2023-01-28T01:03:26.117Z,100281.59
2023-01-28T01:05:54.229Z,100283.49
2023-01-28T01:09:23.200Z,100279.77
2023-01-28T01:12:50.933Z,100281.13
2023-01-28T01:16:00.622Z,100286.73
2023-01-28T01:18:51.412Z,100284.34
2023-01-28T01:21:39.721Z,100286.69
2023-01-28T01:25:07.484Z,100285.45
2023-01-28T01:28:16.401Z,100287.17
2023-01-28T01:31:08.910Z,100287.42
2023-01-28T01:33:57.978Z,100291.04
2023-01-28T01:37:06.753Z,100296.37
2023-01-28T01:39:54.936Z,100296.80
2023-01-28T01:43:22.773Z,100299.90
2023-01-28T01:46:31.623Z,100299.36
2023-01-28T01:49:41.294Z,100303.08
2023-01-28T01:52:34.760Z,100302.86
2023-01-28T01:55:31.447Z,100305.86
2023-01-28T01:58:59.201Z,100309.38
2023-01-28T02:01:48.940Z,100307.86
2023-01-28T02:04:57.594Z,100304.48
2023-01-28T02:07:48.289Z,100308.88
2023-01-28T02:10:37.367Z,100313.27
2023-01-28T02:14:05.564Z,100316.52
2023-01-28T02:17:13.355Z,100313.73
2023-01-28T02:20:41.171Z,100316.82
2023-01-28T02:23:30.489Z,100313.47
2023-01-28T02:26:21.273Z,100315.19
2023-01-28T02:29:48.890Z,100311.04
2023-01-28T02:32:37.697Z,100313.46
2023-01-28T02:36:05.523Z,100313.52
2023-01-28T02:39:13.480Z,100316.22
2023-01-28T02:42:29.184Z,100317.45
2023-01-28T02:45:37.906Z,100315.58
2023-01-28T02:48:49.687Z,100317.67
2023-01-28T02:52:17.570Z,100315.94
2023-01-28T02:54:58.398Z,100316.49
2023-01-28T02:57:47.594Z,100315.38
2023-01-28T03:00:17.220Z,100310.89
2023-01-28T03:03:45.030Z,100314.98
2023-01-28T03:06:33.717Z,100316.86
2023-01-28T03:09:42.681Z,100320.50
2023-01-28T03:12:30.433Z,100319.08
2023-01-28T03:15:21.173Z,100319.77
2023-01-28T03:17:50.680Z,100320.42
2023-01-28T03:20:59.331Z,100319.10
2023-01-28T03:23:47.793Z,100320.96
2023-01-28T03:26:36.327Z,100316.20
2023-01-28T03:29:24.374Z,100317.36
2023-01-28T03:32:32.316Z,100318.27
2023-01-28T03:35:24.315Z,100318.36
2023-01-28T03:38:52.084Z,100315.80
2023-01-28T03:41:40.959Z,100313.75
2023-01-28T03:45:08.597Z,100316.06
2023-01-28T03:47:59.427Z,100313.72
2023-01-28T03:51:27.306Z,100314.29
2023-01-28T03:54:35.058Z,100314.41
2023-01-28T03:57:03.110Z,100318.50
2023-01-28T04:00:31.093Z,100320.02
2023-01-28T04:03:39.859Z,100320.58
2023-01-28T04:06:28.828Z,100318.80
2023-01-28T04:09:45.442Z,100319.18
2023-01-28T04:12:56.084Z,100321.73
2023-01-28T04:15:45.140Z,100320.33
2023-01-28T04:19:12.838Z,100318.27
2023-01-28T04:22:21.015Z,100314.84
2023-01-28T04:25:09.718Z,100317.73
2023-01-28T04:27:41.339Z,100319.02
2023-01-28T04:30:29.768Z,100325.65
2023-01-28T04:33:38.764Z,100326.91
2023-01-28T04:36:56.331Z,100333.62
2023-01-28T04:40:07.942Z,100334.35
2023-01-28T04:43:25.209Z,100337.68
2023-01-28T04:46:52.946Z,100342.74
2023-01-28T04:50:09.701Z,100344.16
2023-01-28T04:53:18.501Z,100350.88
2023-01-28T04:56:40.307Z,100352.45
2023-01-28T04:59:48.378Z,100355.38
2023-01-28T05:03:16.266Z,100354.85
2023-01-28T05:06:04.498Z,100356.31
2023-01-28T05:09:12.259Z,100358.79
2023-01-28T05:12:20.243Z,100360.60
2023-01-28T05:15:28.208Z,100362.70
2023-01-28T05:18:24.260Z,100362.23
2023-01-28T05:21:21.817Z,100362.02
2023-01-28T05:24:17.694Z,100363.48
2023-01-28T05:27:06.757Z,100364.35
2023-01-28T05:30:15.381Z,100369.05
2023-01-28T05:33:23.731Z,100374.84
2023-01-28T05:36:12.855Z,100377.40
2023-01-28T05:39:20.594Z,100378.38
2023-01-28T05:42:28.544Z,100382.63
2023-01-28T05:45:36.922Z,100382.05
2023-01-28T05:48:45.439Z,100385.38
2023-01-28T05:51:34.404Z,100386.23
2023-01-28T05:54:42.817Z,100390.14
2023-01-28T05:57:52.303Z,100391.92
2023-01-28T06:00:40.089Z,100393.50
2023-01-28T06:03:32.419Z,100396.52
2023-01-28T06:07:00.196Z,100399.36
2023-01-28T06:09:30.853Z,100403.12
2023-01-28T06:12:38.709Z,100401.64
2023-01-28T06:15:25.188Z,100401.23
2023-01-28T06:18:53.047Z,100406.17
2023-01-28T06:21:32.724Z,100404.61
2023-01-28T06:24:42.928Z,100410.44
2023-01-28T06:27:51.204Z,100416.20
2023-01-28T06:31:19.054Z,100421.37
2023-01-28T06:34:07.808Z,100422.88
2023-01-28T06:36:57.972Z,100427.42
2023-01-28T06:40:06.552Z,100432.14
2023-01-28T06:42:38.409Z,100435.46
2023-01-28T06:45:49.099Z,100440.20
2023-01-28T06:48:40.016Z,100442.62
2023-01-28T06:51:07.750Z,100445.27
2023-01-28T06:54:35.742Z,100447.88
2023-01-28T06:57:44.109Z,100447.98
2023-01-28T07:00:52.809Z,100449.83
2023-01-28T07:03:20.743Z,100452.40
2023-01-28T07:06:48.060Z,100458.89
2023-01-28T07:09:24.850Z,100462.66
2023-01-28T07:12:33.464Z,100468.16
2023-01-28T07:15:22.170Z,100468.99
2023-01-28T07:18:12.391Z,100474.48
2023-01-28T07:21:36.472Z,100472.66
2023-01-28T07:24:25.152Z,100473.52
2023-01-28T07:26:52.893Z,100473.42
2023-01-28T07:30:00.441Z,100475.45
2023-01-28T07:33:09.175Z,100479.48
2023-01-28T07:36:17.229Z,100483.81
2023-01-28T07:39:04.942Z,100484.56
2023-01-28T07:41:53.483Z,100491.60
2023-01-28T07:44:53.820Z,100490.27
2023-01-28T07:47:41.453Z,100490.52
2023-01-28T07:50:35.039Z,100495.36
2023-01-28T07:53:50.826Z,100498.59
2023-01-28T07:56:42.637Z,100497.13
2023-01-28T07:59:13.409Z,100498.07
2023-01-28T08:02:21.782Z,100494.54
2023-01-28T08:05:30.496Z,100497.26
2023-01-28T08:08:38.341Z,100495.89
2023-01-28T08:12:05.995Z,100494.57
2023-01-28T08:15:17.644Z,100501.09
2023-01-28T08:18:27.318Z,100504.58
2023-01-28T08:21:22.747Z,100509.95
2023-01-28T08:24:31.112Z,100510.82
2023-01-28T08:27:01.443Z,100510.01
2023-01-28T08:30:09.406Z,100510.19
2023-01-28T08:33:06.697Z,100512.73
2023-01-28T08:35:56.762Z,100515.70
2023-01-28T08:39:20.338Z,100521.27
2023-01-28T08:42:09.159Z,100521.80
2023-01-28T08:44:45.679Z,100520.25
2023-01-28T08:47:32.232Z,100524.98
2023-01-28T08:50:28.893Z,100525.70
2023-01-28T08:53:20.380Z,100527.45
2023-01-28T08:56:12.573Z,100528.21
2023-01-28T08:59:03.080Z,100533.52
2023-01-28T09:02:32.089Z,100539.60
2023-01-28T09:05:01.192Z,100546.95
2023-01-28T09:08:09.989Z,100551.80
2023-01-28T09:11:25.500Z,100551.98
2023-01-28T09:14:53.251Z,100556.38
2023-01-28T09:17:21.313Z,100558.96
2023-01-28T09:19:49.037Z,100559.39
2023-01-28T09:22:57.552Z,100557.55
2023-01-28T09:26:10.232Z,100558.23
2023-01-28T09:28:38.099Z,100561.44
2023-01-28T09:31:07.573Z,100562.23
2023-01-28T09:34:35.200Z,100563.89
2023-01-28T09:37:25.104Z,100558.42
2023-01-28T09:40:15.366Z,100555.84
2023-01-28T09:43:31.371Z,100551.91
2023-01-28T09:46:46.976Z,100548.83
2023-01-28T09:49:42.791Z,100549.36
2023-01-28T09:53:10.440Z,100548.23
2023-01-28T09:56:26.410Z,100551.29
2023-01-28T09:59:34.456Z,100552.56
2023-01-28T10:02:23.025Z,100555.63
2023-01-28T10:05:12.887Z,100555.70
2023-01-28T10:08:28.284Z,100550.61
2023-01-28T10:11:04.962Z,100554.17
2023-01-28T10:13:55.614Z,100551.52
2023-01-28T10:16:47.131Z,100559.09
2023-01-28T10:20:15.343Z,100555.37
2023-01-28T10:22:51.154Z,100560.04
2023-01-28T10:25:59.659Z,100557.13
2023-01-28T10:29:07.612Z,100556.96
2023-01-28T10:32:35.426Z,100557.96
2023-01-28T10:35:33.066Z,100555.90
2023-01-28T10:38:38.684Z,100557.86
2023-01-28T10:41:10.310Z,100553.39
2023-01-28T10:44:20.347Z,100556.02
2023-01-28T10:47:48.106Z,100559.02
2023-01-28T10:50:17.166Z,100558.42
2023-01-28T10:53:05.260Z,100560.30
2023-01-28T10:56:15.138Z,100561.44
2023-01-28T10:59:05.260Z,100560.81
2023-01-28T11:02:33.363Z,100562.76
2023-01-28T11:05:23.029Z,100559.83
2023-01-28T11:08:31.746Z,100562.58
2023-01-28T11:11:59.299Z,100560.16
2023-01-28T11:15:08.911Z,100566.49
2023-01-28T11:17:57.815Z,100563.70
2023-01-28T11:20:41.310Z,100567.13
2023-01-28T11:23:51.270Z,100565.61
2023-01-28T11:27:01.163Z,100561.65
2023-01-28T11:29:54.408Z,100560.61
2023-01-28T11:32:51.288Z,100560.69
2023-01-28T11:35:19.300Z,100560.05
2023-01-28T11:38:31.266Z,100558.49
2023-01-28T11:41:59.058Z,100563.90
2023-01-28T11:45:08.679Z,100561.90
2023-01-28T11:47:56.336Z,100558.69
2023-01-28T11:50:25.928Z,100559.16
2023-01-28T11:53:06.519Z,100560.40
2023-01-28T11:56:04.453Z,100561.86
2023-01-28T11:59:13.306Z,100564.48
2023-01-28T12:01:50.896Z,100559.85
2023-01-28T12:04:50.513Z,100561.44
2023-01-28T12:07:19.383Z,100560.23
2023-01-28T12:10:28.024Z,100558.58
2023-01-28T12:13:16.832Z,100565.84
2023-01-28T12:15:46.083Z,100567.61
2023-01-28T12:18:53.996Z,100567.92
2023-01-28T12:21:32.568Z,100570.42
2023-01-28T12:24:21.998Z,100571.12
2023-01-28T12:26:49.752Z,100570.95
2023-01-28T12:29:40.438Z,100570.20
2023-01-28T12:32:29.127Z,100568.17
2023-01-28T12:35:15.472Z,100567.50
2023-01-28T12:38:00.432Z,100566.17
2023-01-28T12:41:09.171Z,100572.13
2023-01-28T12:44:19.163Z,100578.54
2023-01-28T12:47:10.758Z,100577.46
2023-01-28T12:50:19.461Z,100575.78
2023-01-28T12:53:08.086Z,100578.55
2023-01-28T12:55:41.753Z,100576.87
2023-01-28T12:58:53.037Z,100579.38
2023-01-28T13:02:20.771Z,100582.05
2023-01-28T13:05:09.011Z,100587.90
2023-01-28T13:07:38.285Z,100590.70
2023-01-28T13:11:06.063Z,100594.83
2023-01-28T13:13:34.691Z,100596.27
2023-01-28T13:16:42.818Z,100593.40
2023-01-28T13:19:11.122Z,100594.09
2023-01-28T13:22:20.756Z,100599.89
2023-01-28T13:25:10.332Z,100600.36
2023-01-28T13:28:07.090Z,100607.99
2023-01-28T13:30:34.891Z,100610.27
2023-01-28T13:33:05.610Z,100609.11
2023-01-28T13:36:33.351Z,100610.60
2023-01-28T13:40:03.683Z,100618.67
2023-01-28T13:43:12.640Z,100621.95
2023-01-28T13:46:00.717Z,100622.58
2023-01-28T13:48:49.143Z,100624.36
2023-01-28T13:51:28.980Z,100622.46
2023-01-28T13:54:31.997Z,100625.75
2023-01-28T13:57:39.771Z,100628.16
2023-01-28T14:00:27.905Z,100630.08
2023-01-28T14:03:37.720Z,100631.30
2023-01-28T14:06:06.458Z,100632.09
2023-01-28T14:08:54.488Z,100633.20
2023-01-28T14:12:03.012Z,100635.16
2023-01-28T14:15:30.863Z,100636.39
2023-01-28T14:17:59.340Z,100640.84
2023-01-28T14:20:27.697Z,100642.12
2023-01-28T14:23:35.358Z,100643.27
2023-01-28T14:26:09.129Z,100643.09
2023-01-28T14:28:37.366Z,100653.18
2023-01-28T14:31:10.080Z,100652.27
2023-01-28T14:34:17.643Z,100659.08
2023-01-28T14:36:47.324Z,100659.04
2023-01-28T14:39:15.434Z,100658.58
2023-01-28T14:41:43.265Z,100661.57
2023-01-28T14:45:10.849Z,100660.92
2023-01-28T14:48:00.732Z,100660.54
2023-01-28T14:51:08.587Z,100662.77
2023-01-28T14:53:37.530Z,100662.26
2023-01-28T14:57:05.088Z,100667.73
2023-01-28T14:59:53.076Z,100671.27
2023-01-28T15:02:30.013Z,100675.48
2023-01-28T15:05:22.199Z,100675.02
2023-01-28T15:08:10.900Z,100680.89
2023-01-28T15:11:14.365Z,100679.55
2023-01-28T15:13:42.405Z,100682.56
2023-01-28T15:16:54.462Z,100689.16
2023-01-28T15:19:23.166Z,100692.30
2023-01-28T15:22:10.790Z,100694.70
2023-01-28T15:24:59.260Z,100692.92
2023-01-28T15:28:07.455Z,100695.43
2023-01-28T15:30:37.151Z,100701.70
2023-01-28T15:33:09.844Z,100705.30
2023-01-28T15:35:38.858Z,100705.62
2023-01-28T15:38:26.640Z,100703.52
2023-01-28T15:41:03.296Z,100709.97
2023-01-28T15:43:52.371Z,100711.93
2023-01-28T15:47:20.115Z,100717.38
2023-01-28T15:50:47.782Z,100718.06
2023-01-28T15:53:38.659Z,100722.65
2023-01-28T15:56:46.624Z,100720.73
2023-01-28T15:59:55.494Z,100726.43
2023-01-28T16:03:23.352Z,100725.64
2023-01-28T16:06:31.335Z,100729.38
2023-01-28T16:09:20.003Z,100729.54
2023-01-28T16:12:09.732Z,100735.14
2023-01-28T16:15:00.155Z,100737.31
2023-01-28T16:17:29.773Z,100735.13
2023-01-28T16:20:18.400Z,100742.10
2023-01-28T16:23:26.816Z,100745.68
2023-01-28T16:26:24.757Z,100749.47
2023-01-28T16:29:13.953Z,100753.04
2023-01-28T16:32:23.567Z,100758.53
2023-01-28T16:35:11.835Z,100759.98
2023-01-28T16:37:42.196Z,100761.55
2023-01-28T16:40:13.157Z,100764.35
2023-01-28T16:43:20.794Z,100768.86
2023-01-28T16:45:55.020Z,100768.54
2023-01-28T16:48:23.630Z,100768.28
2023-01-28T16:51:14.219Z,100775.02
2023-01-28T16:54:25.825Z,100777.39
2023-01-28T16:57:13.541Z,100780.45
2023-01-28T17:00:21.741Z,100783.81
2023-01-28T17:03:37.459Z,100785.96
2023-01-28T17:06:45.153Z,100788.35
2023-01-28T17:09:37.885Z,100791.21
2023-01-28T17:12:26.824Z,100792.30
2023-01-28T17:14:57.467Z,100792.98
2023-01-28T17:17:45.425Z,100790.23
2023-01-28T17:20:57.215Z,100795.61
2023-01-28T17:23:44.747Z,100799.42
2023-01-28T17:26:25.847Z,100801.83
2023-01-28T17:29:18.668Z,100804.41
2023-01-28T17:32:17.792Z,100805.91
2023-01-28T17:34:48.333Z,100812.17
2023-01-28T17:37:18.908Z,100811.05
2023-01-28T17:40:30.467Z,100813.52
2023-01-28T17:43:15.954Z,100815.92
2023-01-28T17:45:48.733Z,100813.73
2023-01-28T17:48:56.597Z,100816.84
2023-01-28T17:51:48.399Z,100820.37
2023-01-28T17:54:57.949Z,100824.54
2023-01-28T17:58:25.793Z,100825.29
2023-01-28T18:00:54.172Z,100830.64
2023-01-28T18:03:43.791Z,100829.63
2023-01-28T18:06:33.515Z,100829.64
2023-01-28T18:09:41.211Z,100835.58
2023-01-28T18:12:49.184Z,100845.40
2023-01-28T18:15:42.567Z,100843.71
2023-01-28T18:19:10.245Z,100848.04
2023-01-28T18:22:00.892Z,100849.48
2023-01-28T18:24:48.839Z,100850.34
2023-01-28T18:27:44.484Z,100849.27
2023-01-28T18:30:13.026Z,100848.88
2023-01-28T18:33:40.796Z,100855.33
2023-01-28T18:37:08.551Z,100851.45
2023-01-28T18:40:17.269Z,100852.98
2023-01-28T18:43:06.104Z,100853.75
2023-01-28T18:45:33.757Z,100854.33
2023-01-28T18:48:41.930Z,100858.15
2023-01-28T18:51:28.806Z,100856.29
2023-01-28T18:54:04.207Z,100856.29
2023-01-28T18:56:36.674Z,100859.15
2023-01-28T19:00:04.908Z,100859.80
2023-01-28T19:02:41.508Z,100863.14
2023-01-28T19:05:48.714Z,100863.95
2023-01-28T19:08:56.594Z,100863.93
2023-01-28T19:11:45.159Z,100866.88
2023-01-28T19:14:14.165Z,100865.88
2023-01-28T19:16:58.731Z,100869.89
2023-01-28T19:19:47.120Z,100867.70
2023-01-28T19:22:37.023Z,100866.50
2023-01-28T19:25:25.708Z,100871.02
2023-01-28T19:28:33.601Z,100873.05
2023-01-28T19:31:03.503Z,100872.69
2023-01-28T19:33:59.462Z,100875.92
2023-01-28T19:37:07.549Z,100878.39
2023-01-28T19:40:16.451Z,100878.27
2023-01-28T19:43:05.852Z,100881.95
2023-01-28T19:46:16.153Z,100882.04
2023-01-28T19:49:04.248Z,100887.23
2023-01-28T19:51:53.026Z,100885.02
2023-01-28T19:55:02.700Z,100890.52
2023-01-28T19:57:52.611Z,100887.83
2023-01-28T20:01:20.610Z,100893.02
2023-01-28T20:03:54.612Z,100890.65
2023-01-28T20:07:22.089Z,100890.39
2023-01-28T20:10:31.000Z,100892.91
2023-01-28T20:13:43.056Z,100898.02
2023-01-28T20:16:31.568Z,100900.05
2023-01-28T20:19:46.960Z,100900.20
2023-01-28T20:22:16.219Z,100901.27
2023-01-28T20:25:09.042Z,100904.39
2023-01-28T20:27:57.556Z,100905.83
2023-01-28T20:30:49.292Z,100905.23
2023-01-28T20:33:21.660Z,100907.97
2023-01-28T20:36:09.683Z,100908.58
2023-01-28T20:38:41.531Z,100915.53
2023-01-28T20:41:11.261Z,100919.00
2023-01-28T20:43:41.487Z,100915.56
2023-01-28T20:46:51.440Z,100917.77
2023-01-28T20:49:39.680Z,100918.62
2023-01-28T20:52:17.298Z,100919.80
2023-01-28T20:54:48.080Z,100917.26
2023-01-28T20:57:55.456Z,100921.42
2023-01-28T21:00:50.846Z,100920.38
2023-01-28T21:04:00.657Z,100925.52
2023-01-28T21:06:48.930Z,100930.83
2023-01-28T21:09:39.499Z,100933.10
2023-01-28T21:12:47.686Z,100933.65
2023-01-28T21:15:56.679Z,100929.38
2023-01-28T21:19:04.700Z,100936.25
2023-01-28T21:21:52.509Z,100935.18
2023-01-28T21:24:40.372Z,100942.06
2023-01-28T21:27:32.487Z,100942.09
2023-01-28T21:30:03.391Z,100941.02
2023-01-28T21:33:11.338Z,100942.67
2023-01-28T21:36:00.465Z,100945.69
2023-01-28T21:38:33.015Z,100949.37
2023-01-28T21:42:00.591Z,100949.17
2023-01-28T21:44:56.184Z,100951.47
2023-01-28T21:47:27.244Z,100952.68
2023-01-28T21:50:24.047Z,100954.16
2023-01-28T21:52:54.264Z,100956.05
2023-01-28T21:55:21.877Z,100956.92
2023-01-28T21:58:29.839Z,100958.23
2023-01-28T22:01:38.057Z,100959.86
2023-01-28T22:04:06.930Z,100958.77
2023-01-28T22:06:34.572Z,100955.35
2023-01-28T22:09:22.445Z,100958.13
2023-01-28T22:12:11.342Z,100956.86
2023-01-28T22:15:19.400Z,100957.77
2023-01-28T22:18:47.147Z,100963.92
2023-01-28T22:22:15.008Z,100965.30
2023-01-28T22:25:26.729Z,100966.57
2023-01-28T22:27:57.152Z,100963.41
2023-01-28T22:30:47.383Z,100965.20
2023-01-28T22:34:15.733Z,100968.55
2023-01-28T22:37:43.399Z,100970.12
2023-01-28T22:41:11.201Z,100968.02
2023-01-28T22:44:38.776Z,100966.90
2023-01-28T22:48:06.740Z,100969.64
2023-01-28T22:51:34.199Z,100971.02
2023-01-28T22:54:42.878Z,100973.65
2023-01-28T22:57:13.039Z,100972.50
2023-01-28T23:00:40.839Z,100971.40
2023-01-28T23:03:10.085Z,100974.27
2023-01-28T23:06:38.015Z,100976.43
2023-01-28T23:09:46.186Z,100977.66
2023-01-28T23:12:35.058Z,100978.35
2023-01-28T23:16:02.822Z,100977.52
2023-01-28T23:19:11.298Z,100982.73
2023-01-28T23:22:38.989Z,100980.89
2023-01-28T23:25:46.761Z,100983.23
2023-01-28T23:28:54.986Z,100981.41
2023-01-28T23:32:03.859Z,100981.73
2023-01-28T23:34:59.710Z,100984.85
2023-01-28T23:38:08.218Z,100982.97
2023-01-28T23:40:56.951Z,100987.35
2023-01-28T23:44:24.698Z,100988.77
2023-01-28T23:47:20.066Z,100990.36
2023-01-28T23:50:11.628Z,100992.99
2023-01-28T23:53:01.254Z,100990.52
2023-01-28T23:56:29.118Z,100998.60
2023-01-28T23:59:37.846Z,101000.92
